createdAt,value
2023-05-05T00:00:15.626Z,100792.03
2023-05-05T00:02:42.164Z,100798.09
2023-05-05T00:05:08.801Z,100788.72
2023-05-05T00:07:35.201Z,100791.19
2023-05-05T00:10:01.970Z,100784.75
2023-05-05T00:12:28.596Z,100783.69
2023-05-05T00:14:55.004Z,100788.72
2023-05-05T00:17:21.705Z,100777.84
2023-05-05T00:19:48.104Z,100774.94
2023-05-05T00:22:15.365Z,100774.72
2023-05-05T00:24:41.799Z,100769.94
2023-05-05T00:27:08.207Z,100762.44
2023-05-05T00:29:34.559Z,100755.09
2023-05-05T00:32:01.487Z,100754.91
2023-05-05T00:34:27.856Z,100757.41
2023-05-05T00:36:54.699Z,100760.97
2023-05-05T00:39:21.202Z,100751.78
2023-05-05T00:41:47.548Z,100750.72
2023-05-05T00:44:14.996Z,100749.72
2023-05-05T00:46:42.448Z,100746.13
2023-05-05T00:49:09.750Z,100746.78
2023-05-05T00:51:36.572Z,100747.59
2023-05-05T00:54:02.995Z,100742.16
2023-05-05T00:56:29.648Z,100741.78
2023-05-05T00:58:56.411Z,100733.41
2023-05-05T01:01:23.071Z,100733.22
2023-05-05T01:03:49.645Z,100735.72
2023-05-05T01:06:39.941Z,100730.72
2023-05-05T01:09:36.370Z,100732.19
2023-05-05T01:12:14.525Z,100727.34
2023-05-05T01:14:55.996Z,100724.44
2023-05-05T01:17:29.911Z,100722.38
2023-05-05T01:20:12.532Z,100723.00
2023-05-05T01:22:47.276Z,100720.28
2023-05-05T01:25:30.752Z,100720.06
2023-05-05T01:28:28.545Z,100726.31
2023-05-05T01:31:03.188Z,100716.50
2023-05-05T01:33:36.792Z,100721.94
2023-05-05T01:36:12.103Z,100716.94
2023-05-05T01:38:41.199Z,100711.91
2023-05-05T01:41:17.168Z,100698.72
2023-05-05T01:43:45.748Z,100703.97
2023-05-05T01:46:13.756Z,100698.97
2023-05-05T01:48:42.584Z,100701.47
2023-05-05T01:51:10.382Z,100689.56
2023-05-05T01:53:37.324Z,100691.81
2023-05-05T01:56:04.842Z,100710.63
2023-05-05T01:58:32.759Z,100713.97
2023-05-05T02:01:00.825Z,100703.72
2023-05-05T02:03:28.798Z,100702.44
2023-05-05T02:05:57.131Z,100698.50
2023-05-05T02:08:25.965Z,100692.63
2023-05-05T02:10:54.010Z,100697.84
2023-05-05T02:13:21.244Z,100697.22
2023-05-05T02:15:49.487Z,100695.28
2023-05-05T02:18:16.508Z,100698.41
2023-05-05T02:20:43.713Z,100688.38
2023-05-05T02:23:10.215Z,100685.25
2023-05-05T02:25:50.375Z,100678.34
2023-05-05T02:28:22.928Z,100685.84
2023-05-05T02:30:59.946Z,100680.19
2023-05-05T02:33:29.228Z,100687.06
2023-05-05T02:35:59.529Z,100685.41
2023-05-05T02:38:29.266Z,100689.16
2023-05-05T02:40:58.032Z,100687.47
2023-05-05T02:43:25.658Z,100693.72
2023-05-05T02:45:52.135Z,100699.16
2023-05-05T02:48:18.510Z,100696.25
2023-05-05T02:50:44.895Z,100690.81
2023-05-05T02:53:11.334Z,100701.66
2023-05-05T02:55:54.318Z,100688.09
2023-05-05T02:58:31.463Z,100689.16
2023-05-05T03:01:03.832Z,100690.59
2023-05-05T03:03:46.914Z,100684.53
2023-05-05T03:06:19.515Z,100692.03
2023-05-05T03:09:18.508Z,100699.53
2023-05-05T03:11:50.905Z,100695.56
2023-05-05T03:14:19.155Z,100695.78
2023-05-05T03:16:46.959Z,100694.09
2023-05-05T03:19:18.352Z,100697.84
2023-05-05T03:21:45.322Z,100702.44
2023-05-05T03:24:19.359Z,100697.63
2023-05-05T03:26:47.723Z,100695.78
2023-05-05T03:29:14.649Z,100702.03
2023-05-05T03:31:41.320Z,100700.97
2023-05-05T03:34:08.455Z,100705.34
2023-05-05T03:36:35.820Z,100699.53
2023-05-05T03:39:02.300Z,100700.38
2023-05-05T03:41:28.776Z,100697.44
2023-05-05T03:43:55.146Z,100697.44
2023-05-05T03:46:21.659Z,100698.31
2023-05-05T03:48:48.605Z,100703.50
2023-05-05T03:51:15.662Z,100702.50
2023-05-05T03:53:42.122Z,100722.31
2023-05-05T03:56:08.639Z,100718.97
2023-05-05T03:58:35.066Z,100721.84
2023-05-05T04:01:01.751Z,100723.75
2023-05-05T04:03:28.204Z,100724.78
2023-05-05T04:05:54.868Z,100726.03
2023-05-05T04:08:21.209Z,100729.56
2023-05-05T04:10:47.554Z,100719.78
2023-05-05T04:13:14.068Z,100729.56
2023-05-05T04:15:45.638Z,100727.69
2023-05-05T04:18:12.267Z,100727.91
2023-05-05T04:20:38.692Z,100717.88
2023-05-05T04:23:05.049Z,100703.50
2023-05-05T04:25:31.626Z,100704.34
2023-05-05T04:27:58.036Z,100687.22
2023-05-05T04:30:24.426Z,100684.72
2023-05-05T04:32:51.153Z,100699.31
2023-05-05T04:35:17.730Z,100687.63
2023-05-05T04:37:44.153Z,100694.91
2023-05-05T04:40:11.002Z,100700.34
2023-05-05T04:42:37.624Z,100705.34
2023-05-05T04:45:04.584Z,100695.78
2023-05-05T04:47:31.261Z,100704.78
2023-05-05T04:49:57.651Z,100705.63
2023-05-05T04:52:24.004Z,100729.03
2023-05-05T04:54:50.417Z,100733.44
2023-05-05T04:57:16.750Z,100738.91
2023-05-05T04:59:43.161Z,100727.25
2023-05-05T05:02:09.590Z,100727.50
2023-05-05T05:04:36.131Z,100725.19
2023-05-05T05:07:02.570Z,100726.88
2023-05-05T05:09:29.034Z,100734.19
2023-05-05T05:11:59.864Z,100716.03
2023-05-05T05:14:28.018Z,100732.91
2023-05-05T05:16:54.597Z,100726.25
2023-05-05T05:19:21.406Z,100733.94
2023-05-05T05:21:47.954Z,100738.09
2023-05-05T05:24:14.304Z,100750.19
2023-05-05T05:26:40.716Z,100751.84
2023-05-05T05:29:07.132Z,100757.63
2023-05-05T05:31:34.352Z,100748.25
2023-05-05T05:34:00.950Z,100760.13
2023-05-05T05:36:27.384Z,100765.75
2023-05-05T05:38:53.829Z,100763.25
2023-05-05T05:41:20.167Z,100760.94
2023-05-05T05:43:46.496Z,100776.38
2023-05-05T05:46:12.916Z,100776.56
2023-05-05T05:48:39.428Z,100783.03
2023-05-05T05:51:05.853Z,100795.97
2023-05-05T05:53:32.701Z,100801.78
2023-05-05T05:55:59.155Z,100810.13
2023-05-05T05:58:25.664Z,100814.06
2023-05-05T06:00:52.121Z,100827.63
2023-05-05T06:03:18.663Z,100834.09
2023-05-05T06:05:46.302Z,100845.78
2023-05-05T06:08:12.843Z,100838.47
2023-05-05T06:10:39.818Z,100837.25
2023-05-05T06:13:06.454Z,100835.16
2023-05-05T06:15:32.943Z,100833.09
2023-05-05T06:17:59.377Z,100837.28
2023-05-05T06:20:26.149Z,100832.28
2023-05-05T06:22:52.913Z,100833.38
2023-05-05T06:25:19.256Z,100842.38
2023-05-05T06:27:46.166Z,100843.06
2023-05-05T06:30:13.063Z,100840.84
2023-05-05T06:32:39.491Z,100845.91
2023-05-05T06:35:07.077Z,100840.75
2023-05-05T06:37:33.444Z,100834.91
2023-05-05T06:39:59.960Z,100837.25
2023-05-05T06:42:26.409Z,100844.38
2023-05-05T06:44:52.934Z,100841.47
2023-05-05T06:47:19.437Z,100845.22
2023-05-05T06:49:45.812Z,100842.94
2023-05-05T06:52:12.647Z,100844.41
2023-05-05T06:54:39.011Z,100849.63
2023-05-05T06:57:05.549Z,100843.16
2023-05-05T06:59:32.373Z,100844.00
2023-05-05T07:01:59.274Z,100850.28
2023-05-05T07:04:26.699Z,100847.97
2023-05-05T07:06:55.157Z,100848.38
2023-05-05T07:09:21.537Z,100851.31
2023-05-05T07:11:47.914Z,100847.81
2023-05-05T07:14:14.401Z,100848.03
2023-05-05T07:16:40.823Z,100852.81
2023-05-05T07:19:07.344Z,100856.81
2023-05-05T07:21:34.059Z,100846.16
2023-05-05T07:24:01.120Z,100857.00
2023-05-05T07:26:27.633Z,100853.25
2023-05-05T07:28:56.047Z,100861.19
2023-05-05T07:31:22.593Z,100855.56
2023-05-05T07:33:49.724Z,100862.44
2023-05-05T07:36:17.883Z,100866.41
2023-05-05T07:38:44.426Z,100867.88
2023-05-05T07:41:13.048Z,100871.19
2023-05-05T07:43:44.617Z,100869.94
2023-05-05T07:46:11.881Z,100876.19
2023-05-05T07:48:41.665Z,100877.84
2023-05-05T07:51:08.818Z,100871.53
2023-05-05T07:53:35.254Z,100876.13
2023-05-05T07:56:01.787Z,100880.72
2023-05-05T07:58:28.210Z,100873.81
2023-05-05T08:00:54.640Z,100870.19
2023-05-05T08:03:24.326Z,100873.94
2023-05-05T08:05:54.098Z,100880.41
2023-05-05T08:08:24.306Z,100878.09
2023-05-05T08:10:51.867Z,100871.38
2023-05-05T08:13:18.514Z,100876.41
2023-05-05T08:15:45.336Z,100875.13
2023-05-05T08:18:11.772Z,100873.22
2023-05-05T08:20:38.158Z,100880.97
2023-05-05T08:23:04.840Z,100875.91
2023-05-05T08:25:31.168Z,100883.22
2023-05-05T08:27:57.613Z,100886.78
2023-05-05T08:30:24.131Z,100891.75
2023-05-05T08:32:50.678Z,100895.06
2023-05-05T08:35:17.978Z,100897.50
2023-05-05T08:37:44.393Z,100900.81
2023-05-05T08:40:14.468Z,100906.59
2023-05-05T08:42:41.919Z,100908.22
2023-05-05T08:45:10.222Z,100913.16
2023-05-05T08:47:38.734Z,100914.31
2023-05-05T08:50:05.883Z,100912.81
2023-05-05T08:52:40.385Z,100917.09
2023-05-05T08:55:19.942Z,100918.59
2023-05-05T08:57:51.822Z,100906.97
2023-05-05T09:00:19.784Z,100912.72
2023-05-05T09:02:46.943Z,100908.16
2023-05-05T09:05:13.534Z,100900.88
2023-05-05T09:07:43.860Z,100902.38
2023-05-05T09:10:12.024Z,100902.22
2023-05-05T09:12:41.971Z,100891.09
2023-05-05T09:15:10.478Z,100899.13
2023-05-05T09:17:37.790Z,100885.69
2023-05-05T09:20:09.154Z,100895.59
2023-05-05T09:22:37.871Z,100888.97
2023-05-05T09:25:05.933Z,100893.06
2023-05-05T09:27:40.956Z,100891.63
2023-05-05T09:30:08.646Z,100887.97
2023-05-05T09:32:49.179Z,100888.44
2023-05-05T09:35:16.691Z,100884.13
2023-05-05T09:37:43.572Z,100883.19
2023-05-05T09:40:11.392Z,100889.63
2023-05-05T09:42:38.850Z,100883.44
2023-05-05T09:45:26.566Z,100886.63
2023-05-05T09:47:58.773Z,100875.78
2023-05-05T09:50:29.993Z,100875.69
2023-05-05T09:52:58.042Z,100880.44
2023-05-05T09:55:25.051Z,100879.38
2023-05-05T09:57:51.630Z,100873.41
2023-05-05T10:00:18.357Z,100872.94
2023-05-05T10:02:45.839Z,100875.19
2023-05-05T10:05:15.533Z,100870.91
2023-05-05T10:07:43.741Z,100872.31
2023-05-05T10:10:17.432Z,100866.91
2023-05-05T10:12:46.467Z,100866.47
2023-05-05T10:15:15.630Z,100866.56
2023-05-05T10:20:19.059Z,100865.91
2023-05-05T10:22:54.379Z,100878.16
2023-05-05T10:25:28.920Z,100876.94
2023-05-05T10:27:57.745Z,100879.78
2023-05-05T10:30:28.228Z,100876.69
2023-05-05T10:33:18.250Z,100885.34
2023-05-05T10:35:57.184Z,100881.69
2023-05-05T10:38:26.832Z,100871.41
2023-05-05T10:40:54.937Z,100865.25
2023-05-05T10:43:21.671Z,100867.91
2023-05-05T10:45:48.544Z,100873.06
2023-05-05T10:48:44.574Z,100867.03
2023-05-05T10:51:41.147Z,100866.47
2023-05-05T10:54:32.659Z,100870.88
2023-05-05T10:57:02.580Z,100866.34
2023-05-05T10:59:37.957Z,100857.66
2023-05-05T11:02:31.422Z,100857.19
2023-05-05T11:05:18.117Z,100857.19
2023-05-05T11:07:46.339Z,100849.19
2023-05-05T11:10:19.963Z,100839.28
2023-05-05T11:12:52.298Z,100840.69
2023-05-05T11:15:27.973Z,100848.44
2023-05-05T11:17:56.376Z,100845.41
2023-05-05T11:20:41.948Z,100844.91
2023-05-05T11:23:08.273Z,100834.16
2023-05-05T11:25:34.575Z,100824.28
2023-05-05T11:28:09.313Z,100830.31
2023-05-05T11:30:55.821Z,100828.16
2023-05-05T11:33:36.949Z,100825.16
2023-05-05T11:36:13.135Z,100818.31
2023-05-05T11:38:55.599Z,100810.66
2023-05-05T11:41:36.917Z,100819.03
2023-05-05T11:44:20.245Z,100809.31
2023-05-05T11:46:52.606Z,100805.03
2023-05-05T11:49:31.843Z,100795.28
2023-05-05T11:52:03.812Z,100794.00
2023-05-05T11:54:30.921Z,100788.03
2023-05-05T11:57:01.913Z,100793.03
2023-05-05T11:59:28.243Z,100791.16
2023-05-05T12:01:55.122Z,100778.81
2023-05-05T12:04:21.609Z,100783.00
2023-05-05T12:06:49.006Z,100778.94
2023-05-05T12:09:20.149Z,100780.38
2023-05-05T12:11:50.826Z,100777.34
2023-05-05T12:14:17.187Z,100773.50
2023-05-05T12:16:56.246Z,100774.34
2023-05-05T12:19:30.017Z,100771.03
2023-05-05T12:21:56.959Z,100768.81
2023-05-05T12:24:23.490Z,100769.06
2023-05-05T12:26:49.910Z,100761.09
2023-05-05T12:29:26.098Z,100773.47
2023-05-05T12:31:52.915Z,100773.78
2023-05-05T12:34:19.613Z,100774.88
2023-05-05T12:36:46.278Z,100772.44
2023-05-05T12:39:13.293Z,100764.75
2023-05-05T12:41:40.080Z,100763.09
2023-05-05T12:44:06.860Z,100752.91
2023-05-05T12:46:48.951Z,100753.75
2023-05-05T12:49:16.640Z,100748.53
2023-05-05T12:51:56.577Z,100750.22
2023-05-05T12:54:24.913Z,100737.00
2023-05-05T12:56:51.442Z,100752.97
2023-05-05T12:59:21.009Z,100756.31
2023-05-05T13:01:56.122Z,100754.38
2023-05-05T13:04:24.632Z,100756.31
2023-05-05T13:07:11.085Z,100741.41
2023-05-05T13:09:37.592Z,100743.09
2023-05-05T13:12:04.804Z,100733.97
2023-05-05T13:14:34.739Z,100732.88
2023-05-05T13:17:01.295Z,100726.53
2023-05-05T13:19:27.734Z,100720.75
2023-05-05T13:21:54.823Z,100719.38
2023-05-05T13:24:28.745Z,100724.63
2023-05-05T13:27:05.501Z,100713.09
2023-05-05T13:29:32.993Z,100709.22
2023-05-05T13:31:59.827Z,100716.69
2023-05-05T13:34:26.887Z,100711.72
2023-05-05T13:36:53.559Z,100714.47
2023-05-05T13:39:20.166Z,100715.31
2023-05-05T13:41:46.778Z,100699.56
2023-05-05T13:44:14.048Z,100702.34
2023-05-05T13:46:42.443Z,100701.78
2023-05-05T13:49:08.901Z,100700.13
2023-05-05T13:51:35.415Z,100699.56
2023-05-05T13:54:01.899Z,100703.44
2023-05-05T13:56:28.525Z,100700.13
2023-05-05T13:58:54.914Z,100704.75
2023-05-05T14:01:21.341Z,100704.19
2023-05-05T14:03:47.821Z,100713.53
2023-05-05T14:06:14.213Z,100714.28
2023-05-05T14:08:40.571Z,100719.75
2023-05-05T14:11:06.956Z,100726.78
2023-05-05T14:13:33.372Z,100728.31
2023-05-05T14:15:59.940Z,100741.13
2023-05-05T14:18:26.518Z,100750.28
2023-05-05T14:20:53.058Z,100772.03
2023-05-05T14:23:21.291Z,100774.19
2023-05-05T14:25:47.666Z,100828.09
2023-05-05T14:28:14.152Z,100845.53
2023-05-05T14:30:40.500Z,100865.13
2023-05-05T14:33:06.960Z,100880.69
2023-05-05T14:35:33.467Z,100880.06
2023-05-05T14:37:59.811Z,100898.13
2023-05-05T14:40:26.328Z,100898.91
2023-05-05T14:42:52.769Z,100896.47
2023-05-05T14:45:19.176Z,100894.72
2023-05-05T14:47:45.621Z,100892.81
2023-05-05T14:50:12.162Z,100899.25
2023-05-05T14:52:40.179Z,100896.56
2023-05-05T14:55:07.319Z,100907.66
2023-05-05T14:57:34.513Z,100898.88
2023-05-05T15:00:00.908Z,100888.75
2023-05-05T15:02:27.333Z,100890.81
2023-05-05T15:04:53.741Z,100892.47
2023-05-05T15:07:21.240Z,100899.13
2023-05-05T15:09:47.666Z,100883.19
2023-05-05T15:12:14.069Z,100896.34
2023-05-05T15:14:40.823Z,100902.84
2023-05-05T15:17:07.179Z,100911.16
2023-05-05T15:19:33.616Z,100915.78
2023-05-05T15:21:59.989Z,100909.91
2023-05-05T15:24:26.353Z,100912.00
2023-05-05T15:26:52.710Z,100909.22
2023-05-05T15:29:19.162Z,100904.81
2023-05-05T15:31:45.571Z,100910.63
2023-05-05T15:34:12.124Z,100891.97
2023-05-05T15:36:38.503Z,100886.69
2023-05-05T15:39:05.025Z,100887.88
2023-05-05T15:41:34.206Z,100884.47
2023-05-05T15:44:02.001Z,100889.41
2023-05-05T15:46:32.044Z,100898.53
2023-05-05T15:48:58.509Z,100892.25
2023-05-05T15:51:24.925Z,100901.78
2023-05-05T15:53:53.287Z,100901.16
2023-05-05T15:56:19.728Z,100898.44
2023-05-05T15:58:48.852Z,100904.31
2023-05-05T16:01:15.532Z,100896.81
2023-05-05T16:03:42.364Z,100891.03
2023-05-05T16:06:11.488Z,100901.47
2023-05-05T16:08:38.776Z,100901.47
2023-05-05T16:11:05.602Z,100898.75
2023-05-05T16:13:31.985Z,100909.59
2023-05-05T16:15:58.348Z,100909.38
2023-05-05T16:18:24.724Z,100920.22
2023-05-05T16:20:51.173Z,100912.56
2023-05-05T16:23:17.757Z,100919.25
2023-05-05T16:25:44.709Z,100912.59
2023-05-05T16:28:11.085Z,100912.00
2023-05-05T16:30:38.060Z,100913.28
2023-05-05T16:33:04.471Z,100913.72
2023-05-05T16:35:30.931Z,100910.44
2023-05-05T16:37:57.510Z,100894.78
2023-05-05T16:40:23.905Z,100894.59
2023-05-05T16:42:50.349Z,100890.41
2023-05-05T16:45:16.689Z,100889.41
2023-05-05T16:47:43.153Z,100890.88
2023-05-05T16:50:09.954Z,100895.91
2023-05-05T16:52:36.294Z,100891.97
2023-05-05T16:55:04.726Z,100886.97
2023-05-05T16:57:31.841Z,100883.47
2023-05-05T16:59:58.222Z,100889.34
2023-05-05T17:02:24.684Z,100893.94
2023-05-05T17:04:51.116Z,100894.41
2023-05-05T17:07:17.492Z,100895.88
2023-05-05T17:09:43.896Z,100887.31
2023-05-05T17:12:10.276Z,100882.72
2023-05-05T17:14:36.682Z,100885.84
2023-05-05T17:17:03.080Z,100886.94
2023-05-05T17:19:29.416Z,100896.78
2023-05-05T17:21:55.883Z,100885.53
2023-05-05T17:24:22.662Z,100878.25
2023-05-05T17:26:49.076Z,100866.56
2023-05-05T17:29:19.675Z,100865.75
2023-05-05T17:31:46.583Z,100845.25
2023-05-05T17:34:13.031Z,100851.09
2023-05-05T17:36:39.432Z,100854.47
2023-05-05T17:39:06.107Z,100857.81
2023-05-05T17:41:32.532Z,100854.25
2023-05-05T17:43:59.402Z,100857.44
2023-05-05T17:46:26.047Z,100865.81
2023-05-05T17:48:52.601Z,100872.50
2023-05-05T17:51:19.122Z,100874.97
2023-05-05T17:53:45.521Z,100873.66
2023-05-05T17:56:11.970Z,100883.00
2023-05-05T17:58:38.395Z,100876.34
2023-05-05T18:01:04.882Z,100879.19
2023-05-05T18:03:31.538Z,100894.97
2023-05-05T18:05:58.103Z,100887.69
2023-05-05T18:08:24.470Z,100886.03
2023-05-05T18:10:50.889Z,100888.09
2023-05-05T18:13:17.288Z,100892.03
2023-05-05T18:15:43.748Z,100892.47
2023-05-05T18:18:10.295Z,100890.00
2023-05-05T18:20:36.698Z,100892.63
2023-05-05T18:23:03.042Z,100900.69
2023-05-05T18:25:29.502Z,100907.31
2023-05-05T18:27:58.433Z,100922.72
2023-05-05T18:30:24.904Z,100921.09
2023-05-05T18:32:51.499Z,100916.59
2023-05-05T18:35:17.972Z,100915.75
2023-05-05T18:37:44.504Z,100920.66
2023-05-05T18:40:11.230Z,100926.16
2023-05-05T18:42:37.663Z,100928.91
2023-05-05T18:45:04.625Z,100933.38
2023-05-05T18:47:31.121Z,100942.16
2023-05-05T18:49:57.510Z,100942.78
2023-05-05T18:52:24.508Z,100943.19
2023-05-05T18:54:50.899Z,100950.75
2023-05-05T18:57:17.352Z,100947.63
2023-05-05T18:59:43.705Z,100952.63
2023-05-05T19:02:10.130Z,100946.78
2023-05-05T19:04:37.939Z,100944.66
2023-05-05T19:07:04.733Z,100939.66
2023-05-05T19:09:31.373Z,100938.56
2023-05-05T19:11:57.809Z,100930.78
2023-05-05T19:14:24.323Z,100929.28
2023-05-05T19:16:51.282Z,100935.09
2023-05-05T19:19:18.217Z,100932.56
2023-05-05T19:21:44.569Z,100931.06
2023-05-05T19:24:11.541Z,100940.22
2023-05-05T19:26:37.956Z,100940.41
2023-05-05T19:29:04.401Z,100941.41
2023-05-05T19:31:31.325Z,100949.94
2023-05-05T19:34:00.450Z,100946.53
2023-05-05T19:36:27.753Z,100954.00
2023-05-05T19:38:55.443Z,100954.31
2023-05-05T19:41:21.874Z,100948.41
2023-05-05T19:43:49.844Z,100955.84
2023-05-05T19:46:17.155Z,100952.44
2023-05-05T19:48:44.133Z,100961.56
2023-05-05T19:51:10.559Z,100959.19
2023-05-05T19:53:37.008Z,100963.91
2023-05-05T19:56:04.877Z,100963.38
2023-05-05T19:58:51.769Z,100966.41
2023-05-05T20:01:18.255Z,100962.34
2023-05-05T20:03:44.685Z,100949.97
2023-05-05T20:06:11.281Z,100958.84
2023-05-05T20:08:39.072Z,100947.91
2023-05-05T20:11:05.503Z,100950.34
2023-05-05T20:13:34.271Z,100954.50
2023-05-05T20:16:00.930Z,100956.06
2023-05-05T20:18:27.373Z,100955.78
2023-05-05T20:20:53.810Z,100949.09
2023-05-05T20:23:20.290Z,100951.34
2023-05-05T20:25:46.733Z,100952.56
2023-05-05T20:28:13.075Z,100941.09
2023-05-05T20:30:39.508Z,100950.44
2023-05-05T20:33:05.919Z,100945.41
2023-05-05T20:35:32.400Z,100947.44
2023-05-05T20:37:58.825Z,100956.56
2023-05-05T20:40:25.464Z,100954.25
2023-05-05T20:42:51.801Z,100955.28
2023-05-05T20:45:18.554Z,100949.88
2023-05-05T20:47:45.006Z,100954.47
2023-05-05T20:50:11.949Z,100956.34
2023-05-05T20:52:38.577Z,100963.59
2023-05-05T20:55:05.348Z,100962.75
2023-05-05T20:57:31.854Z,100965.66
2023-05-05T20:59:58.292Z,100962.47
2023-05-05T21:02:24.786Z,100957.44
2023-05-05T21:04:51.465Z,100965.09
2023-05-05T21:07:17.790Z,100962.78
2023-05-05T21:09:47.078Z,100969.41
2023-05-05T21:12:13.416Z,100967.44
2023-05-05T21:14:44.689Z,100967.81
2023-05-05T21:17:11.028Z,100967.72
2023-05-05T21:19:37.375Z,100971.81
2023-05-05T21:22:04.365Z,100974.88
2023-05-05T21:24:30.721Z,100960.03
2023-05-05T21:26:57.179Z,100963.31
2023-05-05T21:29:27.012Z,100959.25
2023-05-05T21:31:53.492Z,100957.75
2023-05-05T21:34:20.157Z,100949.00
2023-05-05T21:36:46.541Z,100949.38
2023-05-05T21:39:12.920Z,100953.09
2023-05-05T21:41:39.302Z,100955.16
2023-05-05T21:44:05.714Z,100953.66
2023-05-05T21:46:32.161Z,100962.97
2023-05-05T21:48:58.552Z,100957.28
2023-05-05T21:51:25.279Z,100957.81
2023-05-05T21:53:51.657Z,100955.66
2023-05-05T21:56:18.018Z,100950.59
2023-05-05T21:58:44.623Z,100950.97
2023-05-05T22:01:12.050Z,100955.72
2023-05-05T22:03:38.662Z,100961.50
2023-05-05T22:06:05.319Z,100959.16
2023-05-05T22:08:31.783Z,100961.41
2023-05-05T22:10:58.120Z,100954.66
2023-05-05T22:13:24.509Z,100951.50
2023-05-05T22:15:51.090Z,100951.84
2023-05-05T22:18:17.542Z,100950.53
2023-05-05T22:20:43.968Z,100953.59
2023-05-05T22:23:10.692Z,100957.66
2023-05-05T22:25:37.101Z,100953.66
2023-05-05T22:28:04.098Z,100956.72
2023-05-05T22:30:30.833Z,100958.09
2023-05-05T22:32:57.313Z,100964.84
2023-05-05T22:35:23.741Z,100959.16
2023-05-05T22:37:50.125Z,100970.66
2023-05-05T22:40:16.517Z,100971.38
2023-05-05T22:42:43.005Z,100974.63
2023-05-05T22:45:10.303Z,100978.03
2023-05-05T22:47:37.113Z,100975.16
2023-05-05T22:50:03.609Z,100966.94
2023-05-05T22:52:29.951Z,100967.59
2023-05-05T22:54:56.483Z,100973.38
2023-05-05T22:57:23.221Z,100965.97
2023-05-05T22:59:50.119Z,100961.09
2023-05-05T23:02:16.494Z,100961.63
2023-05-05T23:04:44.564Z,100968.19
2023-05-05T23:07:14.392Z,100960.47
2023-05-05T23:09:40.921Z,100951.03
2023-05-05T23:12:07.380Z,100958.47
2023-05-05T23:14:33.888Z,100960.69
2023-05-05T23:17:00.776Z,100959.16
2023-05-05T23:19:28.988Z,100957.66
2023-05-05T23:21:55.732Z,100963.22
2023-05-05T23:24:22.136Z,100962.72
2023-05-05T23:26:48.506Z,100953.13
2023-05-05T23:29:14.973Z,100958.00
2023-05-05T23:31:41.406Z,100963.75
2023-05-05T23:34:07.747Z,100963.25
2023-05-05T23:36:34.153Z,100961.91
2023-05-05T23:39:00.553Z,100965.97
2023-05-05T23:41:27.022Z,100971.72
2023-05-05T23:43:53.417Z,100967.66
2023-05-05T23:46:19.795Z,100965.31
2023-05-05T23:48:46.224Z,100976.44
2023-05-05T23:51:12.550Z,100975.09
2023-05-05T23:53:38.888Z,100972.75
2023-05-05T23:56:05.665Z,100972.06
2023-05-05T23:58:32.001Z,100971.72
